createdAt,value
2018-12-24T00:00:45.246Z,12.30
2018-12-24T00:03:16.300Z,12.30
2018-12-24T00:05:47.261Z,12.30
2018-12-24T00:08:18.246Z,12.30
2018-12-24T00:10:49.296Z,12.50
2018-12-24T00:13:20.357Z,12.40
2018-12-24T00:15:51.422Z,12.40
2018-12-24T00:18:22.667Z,12.30
2018-12-24T00:20:53.786Z,12.40
2018-12-24T00:23:24.885Z,12.50
2018-12-24T00:25:56.020Z,12.40
2018-12-24T00:28:27.123Z,12.30
2018-12-24T00:30:58.153Z,12.50
2018-12-24T00:33:29.168Z,12.50
2018-12-24T00:36:00.437Z,12.40
2018-12-24T00:38:31.595Z,12.30
2018-12-24T00:41:02.871Z,12.40
2018-12-24T00:43:34.076Z,12.50
2018-12-24T00:46:05.111Z,12.40
2018-12-24T00:48:36.305Z,12.40
2018-12-24T00:51:07.446Z,12.30
2018-12-24T00:53:38.546Z,12.30
2018-12-24T00:56:09.725Z,12.20
2018-12-24T00:58:41.041Z,12.20
2018-12-24T01:01:12.235Z,12.30
2018-12-24T01:03:43.509Z,12.20
2018-12-24T01:06:14.710Z,12.20
2018-12-24T01:08:45.960Z,12.20
2018-12-24T01:11:17.263Z,12.10
2018-12-24T01:13:48.396Z,12.10
2018-12-24T01:18:21.453Z,12.10
2018-12-24T01:20:52.581Z,12.10
2018-12-24T01:23:23.193Z,12.20
2018-12-24T01:25:53.945Z,12.30
2018-12-24T01:28:24.693Z,12.20
2018-12-24T01:30:55.345Z,12.30
2018-12-24T01:33:25.975Z,12.30
2018-12-24T01:35:56.721Z,12.30
2018-12-24T01:38:27.438Z,12.40
2018-12-24T01:40:58.177Z,12.30
2018-12-24T01:43:28.793Z,12.40
2018-12-24T01:46:00.326Z,12.40
2018-12-24T01:48:31.194Z,12.30
2018-12-24T01:51:02.017Z,12.20
2018-12-24T01:53:32.708Z,12.20
2018-12-24T01:56:03.502Z,12.20
2018-12-24T01:58:34.326Z,12.10
2018-12-24T02:01:05.195Z,12.10
2018-12-24T02:03:36.021Z,11.90
2018-12-24T02:06:06.780Z,11.90
2018-12-24T02:08:37.634Z,11.80
2018-12-24T02:11:08.461Z,11.70
2018-12-24T02:13:39.266Z,11.40
2018-12-24T02:16:10.009Z,9.60
2018-12-24T02:18:40.550Z,8.90
2018-12-24T02:21:11.258Z,8.70
2018-12-24T02:23:41.876Z,8.60
2018-12-24T02:26:12.587Z,8.50
2018-12-24T02:28:43.296Z,8.40
2018-12-24T02:31:14.004Z,8.40
2018-12-24T02:33:44.597Z,8.50
2018-12-24T02:36:15.245Z,8.50
2018-12-24T02:38:45.814Z,8.50
2018-12-24T02:41:16.912Z,8.40
2018-12-24T02:43:47.711Z,8.40
2018-12-24T02:46:18.389Z,8.40
2018-12-24T02:48:49.075Z,8.30
2018-12-24T02:51:19.805Z,8.30
2018-12-24T02:53:50.505Z,8.30
2018-12-24T02:56:21.164Z,8.30
2018-12-24T02:58:51.873Z,8.30
2018-12-24T03:01:22.671Z,8.30
2018-12-24T03:03:53.349Z,8.30
2018-12-24T03:06:23.988Z,8.30
2018-12-24T03:08:54.586Z,8.30
2018-12-24T03:11:25.211Z,8.30
2018-12-24T03:13:55.819Z,8.30
2018-12-24T03:16:26.438Z,8.30
2018-12-24T03:18:57.047Z,8.30
2018-12-24T03:21:27.755Z,8.30
2018-12-24T03:23:58.364Z,8.30
2018-12-24T03:26:28.989Z,8.30
2018-12-24T03:28:59.605Z,8.30
2018-12-24T03:31:30.242Z,8.30
2018-12-24T03:34:00.841Z,7.30
2018-12-24T03:36:31.499Z,8.20
2018-12-24T03:39:02.102Z,8.20
2018-12-24T03:41:34.193Z,8.20
2018-12-24T03:44:04.721Z,8.20
2018-12-24T03:46:35.393Z,8.10
2018-12-24T03:49:06.073Z,8.00
2018-12-24T03:51:36.745Z,8.00
2018-12-24T03:54:07.440Z,7.90
2018-12-24T03:56:37.986Z,7.90
2018-12-24T03:59:08.609Z,7.70
2018-12-24T04:01:39.221Z,7.70
2018-12-24T04:04:09.852Z,7.50
2018-12-24T04:06:40.718Z,7.50
2018-12-24T04:09:11.269Z,7.40
2018-12-24T04:11:41.891Z,7.30
2018-12-24T04:14:12.590Z,7.20
2018-12-24T04:16:43.191Z,7.20
2018-12-24T04:19:13.893Z,7.20
2018-12-24T04:21:45.499Z,7.10
2018-12-24T04:24:16.232Z,7.10
2018-12-24T04:26:46.913Z,7.10
2018-12-24T04:29:17.569Z,7.10
2018-12-24T04:31:48.255Z,7.00
2018-12-24T04:34:18.884Z,6.90
2018-12-24T04:36:49.435Z,6.90
2018-12-24T04:39:20.394Z,6.90
2018-12-24T04:41:51.136Z,6.80
2018-12-24T04:44:21.790Z,6.80
2018-12-24T04:46:52.398Z,6.80
2018-12-24T04:49:23.019Z,6.80
2018-12-24T04:51:53.628Z,6.70
2018-12-24T04:54:24.313Z,6.70
2018-12-24T04:56:54.854Z,6.60
2018-12-24T04:59:25.497Z,6.70
2018-12-24T05:01:56.105Z,6.60
2018-12-24T05:04:26.736Z,6.60
2018-12-24T05:06:57.377Z,6.60
2018-12-24T05:09:28.000Z,6.60
2018-12-24T05:11:58.522Z,6.50
2018-12-24T05:14:29.150Z,6.50
2018-12-24T05:16:59.832Z,6.50
2018-12-24T05:19:30.444Z,6.50
2018-12-24T05:22:00.967Z,6.40
2018-12-24T05:24:31.593Z,6.40
2018-12-24T05:27:02.194Z,6.40
2018-12-24T05:29:32.893Z,6.40
2018-12-24T05:32:03.574Z,6.30
2018-12-24T05:34:34.124Z,6.30
2018-12-24T05:37:04.668Z,6.20
2018-12-24T05:39:35.361Z,6.20
2018-12-24T05:42:05.963Z,6.20
2018-12-24T05:44:36.512Z,6.10
2018-12-24T05:47:07.117Z,6.10
2018-12-24T05:49:38.804Z,6.10
2018-12-24T05:52:09.334Z,6.00
2018-12-24T05:54:39.885Z,6.10
2018-12-24T05:57:10.556Z,6.00
2018-12-24T05:59:41.190Z,6.00
2018-12-24T06:02:11.877Z,6.00
2018-12-24T06:04:42.441Z,6.00
2018-12-24T06:07:13.037Z,6.00
2018-12-24T06:09:43.734Z,6.00
2018-12-24T06:12:14.357Z,6.00
2018-12-24T06:14:45.060Z,5.90
2018-12-24T06:17:15.575Z,6.00
2018-12-24T06:19:46.129Z,6.00
2018-12-24T06:22:16.749Z,5.90
2018-12-24T06:24:47.312Z,5.90
2018-12-24T06:27:17.920Z,5.90
2018-12-24T06:29:48.499Z,5.90
2018-12-24T06:32:19.168Z,5.80
2018-12-24T06:34:49.730Z,5.80
2018-12-24T06:37:20.293Z,5.80
2018-12-24T06:39:50.937Z,5.80
2018-12-24T06:42:21.462Z,5.80
2018-12-24T06:44:52.093Z,5.70
2018-12-24T06:47:22.760Z,5.80
2018-12-24T06:49:53.349Z,5.80
2018-12-24T06:52:23.944Z,5.80
2018-12-24T06:54:54.525Z,5.80
2018-12-24T06:57:25.154Z,5.80
2018-12-24T06:59:56.834Z,5.80
2018-12-24T07:02:27.438Z,5.80
2018-12-24T07:04:58.149Z,5.80
2018-12-24T07:07:28.754Z,5.80
2018-12-24T07:09:59.332Z,5.80
2018-12-24T07:12:31.118Z,5.80
2018-12-24T07:15:01.783Z,5.70
2018-12-24T07:17:33.453Z,5.80
2018-12-24T07:20:04.142Z,5.70
2018-12-24T07:22:34.782Z,5.70
2018-12-24T07:25:05.401Z,5.70
2018-12-24T07:27:35.943Z,5.70
2018-12-24T07:30:06.645Z,5.70
2018-12-24T07:32:37.337Z,5.70
2018-12-24T07:35:07.977Z,5.70
2018-12-24T07:37:38.715Z,5.80
2018-12-24T07:40:09.425Z,5.70
2018-12-24T07:42:40.065Z,5.70
2018-12-24T07:45:10.745Z,5.70
2018-12-24T07:47:41.290Z,5.70
2018-12-24T07:50:11.972Z,5.70
2018-12-24T07:52:42.590Z,5.70
2018-12-24T07:55:13.127Z,5.70
2018-12-24T07:57:43.746Z,5.70
2018-12-24T08:00:14.340Z,5.70
2018-12-24T08:02:44.893Z,5.80
2018-12-24T08:05:15.417Z,5.80
2018-12-24T08:07:46.048Z,5.80
2018-12-24T08:10:16.582Z,5.70
2018-12-24T08:12:47.245Z,5.80
2018-12-24T08:15:17.872Z,5.80
2018-12-24T08:17:48.416Z,5.80
2018-12-24T08:20:19.016Z,5.80
2018-12-24T08:22:49.629Z,5.80
2018-12-24T08:25:20.193Z,5.80
2018-12-24T08:27:59.453Z,5.80
2018-12-24T08:30:30.041Z,5.80
2018-12-24T08:33:02.878Z,5.80
2018-12-24T08:35:33.537Z,5.80
2018-12-24T08:38:04.097Z,5.70
2018-12-24T08:40:34.632Z,5.70
2018-12-24T08:43:05.269Z,5.70
2018-12-24T08:45:35.961Z,5.70
2018-12-24T08:48:06.517Z,5.70
2018-12-24T08:50:37.144Z,5.60
2018-12-24T08:53:07.857Z,5.60
2018-12-24T08:55:42.596Z,5.50
2018-12-24T08:58:13.229Z,5.60
2018-12-24T09:00:43.834Z,5.60
2018-12-24T09:03:14.469Z,5.50
2018-12-24T09:05:45.194Z,5.50
2018-12-24T09:08:16.064Z,5.50
2018-12-24T09:10:46.593Z,5.50
2018-12-24T09:13:17.197Z,5.40
2018-12-24T09:15:47.717Z,5.50
2018-12-24T09:18:18.348Z,5.50
2018-12-24T09:20:52.767Z,5.60
2018-12-24T09:23:21.230Z,5.60
2018-12-24T09:25:51.833Z,5.70
2018-12-24T09:28:22.537Z,5.80
2018-12-24T09:30:53.526Z,5.90
2018-12-24T09:33:24.136Z,5.90
2018-12-24T09:35:54.697Z,5.90
2018-12-24T09:38:25.316Z,6.00
2018-12-24T09:40:55.845Z,5.90
2018-12-24T09:43:26.471Z,5.90
2018-12-24T09:45:57.074Z,5.90
2018-12-24T09:48:27.684Z,5.90
2018-12-24T09:50:58.380Z,6.00
2018-12-24T09:53:28.917Z,6.00
2018-12-24T09:55:59.574Z,6.00
2018-12-24T09:58:30.173Z,5.90
2018-12-24T10:01:00.865Z,5.90
2018-12-24T10:03:36.017Z,6.00
2018-12-24T10:06:16.361Z,6.10
2018-12-24T10:08:46.968Z,6.20
2018-12-24T10:11:17.597Z,6.20
2018-12-24T10:13:48.333Z,6.30
2018-12-24T10:16:20.529Z,6.40
2018-12-24T10:18:51.130Z,6.40
2018-12-24T10:21:21.803Z,6.40
2018-12-24T10:23:52.342Z,6.40
2018-12-24T10:26:23.375Z,6.50
2018-12-24T10:28:53.981Z,6.50
2018-12-24T10:31:24.614Z,6.60
2018-12-24T10:33:55.233Z,6.60
2018-12-24T10:36:26.493Z,6.60
2018-12-24T10:38:57.117Z,6.60
2018-12-24T10:41:29.675Z,6.60
2018-12-24T10:44:00.512Z,6.60
2018-12-24T10:46:31.222Z,6.70
2018-12-24T10:49:01.913Z,6.70
2018-12-24T10:51:32.479Z,6.60
2018-12-24T10:54:03.209Z,6.70
2018-12-24T10:56:33.929Z,6.70
2018-12-24T10:59:04.614Z,6.80
2018-12-24T11:01:35.243Z,6.80
2018-12-24T11:04:05.950Z,6.70
2018-12-24T11:06:36.588Z,6.80
2018-12-24T11:09:07.803Z,6.90
2018-12-24T11:11:42.238Z,7.00
2018-12-24T11:14:12.989Z,7.00
2018-12-24T11:16:43.652Z,6.90
2018-12-24T11:19:15.681Z,7.00
2018-12-24T11:21:46.519Z,7.00
2018-12-24T11:24:18.189Z,7.00
2018-12-24T11:26:49.755Z,7.10
2018-12-24T11:29:21.280Z,7.20
2018-12-24T11:31:52.428Z,7.20
2018-12-24T11:34:23.390Z,7.20
2018-12-24T11:36:54.225Z,7.10
2018-12-24T11:39:25.026Z,7.10
2018-12-24T11:41:55.952Z,7.00
2018-12-24T11:44:26.787Z,6.90
2018-12-24T11:46:57.697Z,7.00
2018-12-24T11:49:28.709Z,6.90
2018-12-24T11:51:59.443Z,6.90
2018-12-24T11:54:30.125Z,6.80
2018-12-24T11:57:00.781Z,6.70
2018-12-24T11:59:31.445Z,6.70
2018-12-24T12:02:09.760Z,6.70
2018-12-24T12:04:34.306Z,6.80
2018-12-24T12:07:05.504Z,6.80
2018-12-24T12:09:36.827Z,6.80
2018-12-24T12:12:07.833Z,6.80
2018-12-24T12:14:38.708Z,6.70
2018-12-24T12:17:09.458Z,6.70
2018-12-24T12:19:40.090Z,6.70
2018-12-24T12:22:10.736Z,6.70
2018-12-24T12:24:41.268Z,6.80
2018-12-24T12:27:12.141Z,7.00
2018-12-24T12:29:42.813Z,7.60
2018-12-24T12:32:13.601Z,8.40
2018-12-24T12:34:44.277Z,8.80
2018-12-24T12:37:14.929Z,8.90
2018-12-24T12:39:45.541Z,9.20
2018-12-24T12:42:17.681Z,9.80
2018-12-24T12:44:48.437Z,9.30
2018-12-24T12:47:19.065Z,9.70
2018-12-24T12:49:49.705Z,10.70
2018-12-24T12:52:20.402Z,10.30
2018-12-24T12:54:51.110Z,10.30
2018-12-24T12:57:21.775Z,10.10
2018-12-24T12:59:52.295Z,8.80
2018-12-24T13:02:23.004Z,8.40
2018-12-24T13:07:23.416Z,8.80
2018-12-24T13:09:53.949Z,8.80
2018-12-24T13:12:24.584Z,9.40
2018-12-24T13:14:55.292Z,10.00
2018-12-24T13:17:25.869Z,11.60
2018-12-24T13:19:56.479Z,12.60
2018-12-24T13:22:27.082Z,13.40
2018-12-24T13:24:57.762Z,13.70
2018-12-24T13:27:28.404Z,14.40
2018-12-24T13:29:59.045Z,14.10
2018-12-24T13:32:29.706Z,13.40
2018-12-24T13:35:00.342Z,13.60
2018-12-24T13:37:31.101Z,13.50
2018-12-24T13:40:01.678Z,14.30
2018-12-24T13:42:32.431Z,13.30
2018-12-24T13:45:03.897Z,12.90
2018-12-24T13:47:34.625Z,12.90
2018-12-24T13:50:05.430Z,12.50
2018-12-24T13:52:38.819Z,12.90
2018-12-24T13:55:10.402Z,12.90
2018-12-24T13:57:41.977Z,13.50
2018-12-24T14:00:12.686Z,13.50
2018-12-24T14:02:43.343Z,12.60
2018-12-24T14:05:14.004Z,10.60
2018-12-24T14:07:44.621Z,8.30
2018-12-24T14:10:15.365Z,9.40
2018-12-24T14:12:45.994Z,11.10
2018-12-24T14:15:16.771Z,10.90
2018-12-24T14:17:47.461Z,9.50
2018-12-24T14:20:18.104Z,11.20
2018-12-24T14:22:48.729Z,10.70
2018-12-24T14:25:19.294Z,8.40
2018-12-24T14:27:49.917Z,7.80
2018-12-24T14:30:20.529Z,7.60
2018-12-24T14:32:51.150Z,7.00
2018-12-24T14:35:21.791Z,6.60
2018-12-24T14:37:52.316Z,6.40
2018-12-24T14:40:23.832Z,6.10
2018-12-24T14:42:54.432Z,6.00
2018-12-24T14:45:26.063Z,5.90
2018-12-24T14:47:56.729Z,6.00
2018-12-24T14:50:27.533Z,6.00
2018-12-24T14:52:58.085Z,5.90
2018-12-24T14:55:28.787Z,5.90
2018-12-24T14:57:59.386Z,5.80
2018-12-24T15:00:30.004Z,5.80
2018-12-24T15:03:00.621Z,5.70
2018-12-24T15:05:31.176Z,5.70
2018-12-24T15:08:01.917Z,5.50
2018-12-24T15:10:34.525Z,5.40
2018-12-24T15:13:08.449Z,5.40
2018-12-24T15:15:39.184Z,5.30
2018-12-24T15:18:09.800Z,5.30
2018-12-24T15:20:40.460Z,5.30
2018-12-24T15:23:11.076Z,5.20
2018-12-24T15:25:41.684Z,5.20
2018-12-24T15:28:12.277Z,5.20
2018-12-24T15:30:42.965Z,5.20
2018-12-24T15:33:13.587Z,5.20
2018-12-24T15:35:44.153Z,5.30
2018-12-24T15:38:14.774Z,5.30
2018-12-24T15:40:45.456Z,5.30
2018-12-24T15:43:16.148Z,5.30
2018-12-24T15:45:46.774Z,5.40
2018-12-24T15:48:17.386Z,5.40
2018-12-24T15:50:47.934Z,5.40
2018-12-24T15:53:18.457Z,5.40
2018-12-24T15:55:49.009Z,5.30
2018-12-24T15:58:19.539Z,5.30
2018-12-24T16:00:50.179Z,5.30
2018-12-24T16:03:21.745Z,5.20
2018-12-24T16:05:52.307Z,5.10
2018-12-24T16:08:22.897Z,5.10
2018-12-24T16:10:53.445Z,5.10
2018-12-24T16:13:24.482Z,4.90
2018-12-24T16:15:55.194Z,4.90
2018-12-24T16:18:25.790Z,5.00
2018-12-24T16:20:56.332Z,4.90
2018-12-24T16:23:28.445Z,4.90
2018-12-24T16:25:59.005Z,4.80
2018-12-24T16:31:34.796Z,4.80
2018-12-24T16:34:06.396Z,4.90
2018-12-24T16:36:37.478Z,4.90
2018-12-24T16:39:13.197Z,4.90
2018-12-24T16:41:44.341Z,4.90
2018-12-24T16:44:16.758Z,4.80
2018-12-24T16:46:47.682Z,4.80
2018-12-24T16:49:18.441Z,4.80
2018-12-24T16:51:49.338Z,4.60
2018-12-24T16:54:21.616Z,4.60
2018-12-24T16:57:06.855Z,4.60
2018-12-24T16:59:42.732Z,4.40
2018-12-24T17:02:17.818Z,4.20
2018-12-24T17:04:48.529Z,4.30
2018-12-24T17:07:19.310Z,4.20
2018-12-24T17:09:50.044Z,4.20
2018-12-24T17:12:22.240Z,4.20
2018-12-24T17:14:53.107Z,4.20
2018-12-24T17:17:23.857Z,4.30
2018-12-24T17:19:54.557Z,4.20
2018-12-24T17:22:27.470Z,4.20
2018-12-24T17:24:59.784Z,4.10
2018-12-24T17:27:30.352Z,4.10
2018-12-24T17:30:00.945Z,4.10
2018-12-24T17:32:31.592Z,4.10
2018-12-24T17:35:02.257Z,4.10
2018-12-24T17:37:32.966Z,4.10
2018-12-24T17:40:03.761Z,4.10
2018-12-24T17:42:34.409Z,4.20
2018-12-24T17:45:05.250Z,4.10
2018-12-24T17:47:35.965Z,4.10
2018-12-24T17:50:07.262Z,4.20
2018-12-24T17:52:37.911Z,4.20
2018-12-24T17:55:08.626Z,4.20
2018-12-24T17:57:39.340Z,4.20
2018-12-24T18:00:09.965Z,4.10
2018-12-24T18:02:40.614Z,4.10
2018-12-24T18:05:11.318Z,4.00
2018-12-24T18:07:41.979Z,3.80
2018-12-24T18:10:12.680Z,3.90
2018-12-24T18:12:43.393Z,3.90
2018-12-24T18:15:14.102Z,3.90
2018-12-24T18:17:44.824Z,3.90
2018-12-24T18:20:15.521Z,3.90
2018-12-24T18:22:46.178Z,3.90
2018-12-24T18:25:16.882Z,4.00
2018-12-24T18:27:47.628Z,4.00
2018-12-24T18:30:18.337Z,3.90
2018-12-24T18:32:48.973Z,3.80
2018-12-24T18:35:19.706Z,3.80
2018-12-24T18:37:50.715Z,3.70
2018-12-24T18:40:21.371Z,3.70
2018-12-24T18:42:52.103Z,3.60
2018-12-24T18:45:22.813Z,3.70
2018-12-24T18:47:53.481Z,3.70
2018-12-24T18:52:53.922Z,3.90
2018-12-24T18:55:24.569Z,4.00
2018-12-24T18:57:55.199Z,4.00
2018-12-24T19:00:25.926Z,4.00
2018-12-24T19:02:56.614Z,3.90
2018-12-24T19:05:27.335Z,3.90
2018-12-24T19:07:57.961Z,3.90
2018-12-24T19:10:28.711Z,3.90
2018-12-24T19:12:59.437Z,3.90
2018-12-24T19:15:30.075Z,3.90
2018-12-24T19:18:00.793Z,3.90
2018-12-24T19:20:31.518Z,3.60
2018-12-24T19:23:02.248Z,3.70
2018-12-24T19:25:32.987Z,3.60
2018-12-24T19:28:03.690Z,3.60
2018-12-24T19:30:34.500Z,3.60
2018-12-24T19:33:05.205Z,3.50
2018-12-24T19:35:36.323Z,3.50
2018-12-24T19:38:07.157Z,3.50
2018-12-24T19:40:40.491Z,3.50
2018-12-24T19:55:43.874Z,3.60
2018-12-24T20:00:45.713Z,3.70
2018-12-24T20:03:16.349Z,3.80
2018-12-24T20:05:47.005Z,3.80
2018-12-24T20:08:17.645Z,3.80
2018-12-24T20:10:48.322Z,3.80
2018-12-24T20:13:19.018Z,3.70
2018-12-24T20:15:49.746Z,3.80
2018-12-24T20:18:20.373Z,3.80
2018-12-24T20:20:51.092Z,3.70
2018-12-24T20:23:21.717Z,3.80
2018-12-24T20:25:53.337Z,3.80
2018-12-24T20:28:24.289Z,3.80
2018-12-24T20:30:54.941Z,3.80
2018-12-24T20:33:25.485Z,3.80
2018-12-24T20:35:56.155Z,4.30
2018-12-24T20:38:26.849Z,3.80
2018-12-24T20:40:57.507Z,3.80
2018-12-24T20:43:28.270Z,3.80
2018-12-24T20:45:58.986Z,3.80
2018-12-24T20:48:29.677Z,3.90
2018-12-24T20:51:01.025Z,3.90
2018-12-24T20:53:32.408Z,3.80
2018-12-24T20:56:03.161Z,3.90
2018-12-24T20:58:34.492Z,3.90
2018-12-24T21:01:05.622Z,3.90
2018-12-24T21:03:36.246Z,3.90
2018-12-24T21:06:07.061Z,3.90
2018-12-24T21:08:40.874Z,3.80
2018-12-24T21:11:11.520Z,3.60
2018-12-24T21:13:42.179Z,3.60
2018-12-24T21:16:12.817Z,3.50
2018-12-24T21:18:43.438Z,3.50
2018-12-24T21:21:14.106Z,3.30
2018-12-24T21:23:44.803Z,3.30
2018-12-24T21:26:15.533Z,3.10
2018-12-24T21:31:17.372Z,3.20
2018-12-24T21:33:48.090Z,3.20
2018-12-24T21:36:18.861Z,3.10
2018-12-24T21:38:50.133Z,3.10
2018-12-24T21:41:20.909Z,3.00
2018-12-24T21:43:51.536Z,2.80
2018-12-24T21:46:22.254Z,2.80
2018-12-24T21:48:52.865Z,2.70
2018-12-24T21:51:23.466Z,2.60
2018-12-24T21:53:54.148Z,2.50
2018-12-24T21:56:25.031Z,2.50
2018-12-24T21:58:55.737Z,2.50
2018-12-24T22:01:26.463Z,2.50
2018-12-24T22:03:57.146Z,2.40
2018-12-24T22:06:27.894Z,2.40
2018-12-24T22:08:58.665Z,2.30
2018-12-24T22:13:59.747Z,2.10
2018-12-24T22:16:30.469Z,2.10
2018-12-24T22:21:31.165Z,2.00
2018-12-24T22:24:01.966Z,1.90
2018-12-24T22:26:32.719Z,1.90
2018-12-24T22:29:03.434Z,1.90
2018-12-24T22:31:34.135Z,2.10
2018-12-24T22:34:05.017Z,2.00
2018-12-24T22:36:35.845Z,1.80
2018-12-24T22:39:08.043Z,1.80
2018-12-24T22:41:38.777Z,1.80
2018-12-24T22:44:10.343Z,2.00
2018-12-24T22:46:41.254Z,2.00
2018-12-24T22:49:12.034Z,2.00
2018-12-24T22:51:42.938Z,1.90
2018-12-24T22:54:16.022Z,1.90
2018-12-24T22:56:46.717Z,1.90
2018-12-24T22:59:17.452Z,1.90
2018-12-24T23:01:48.220Z,1.90
2018-12-24T23:04:19.075Z,2.00
2018-12-24T23:06:49.809Z,2.00
2018-12-24T23:09:20.502Z,2.00
2018-12-24T23:11:51.449Z,1.90
2018-12-24T23:14:22.093Z,1.80
2018-12-24T23:16:52.864Z,1.80
2018-12-24T23:19:23.699Z,1.70
2018-12-24T23:21:56.579Z,1.70
2018-12-24T23:24:27.012Z,1.60
2018-12-24T23:26:58.106Z,1.50
2018-12-24T23:29:28.917Z,1.60
2018-12-24T23:31:59.637Z,1.40
2018-12-24T23:34:30.693Z,1.30
2018-12-24T23:37:01.494Z,1.30
2018-12-24T23:39:32.326Z,1.00
2018-12-24T23:42:03.244Z,1.00
2018-12-24T23:44:34.071Z,1.00
2018-12-24T23:47:05.781Z,0.90
2018-12-24T23:49:36.650Z,0.90
2018-12-24T23:52:07.364Z,0.90
2018-12-24T23:54:38.255Z,0.90
2018-12-24T23:57:09.490Z,0.80
